createdAt,value
2018-03-08T00:01:15.234Z,12.57
2018-03-08T00:03:43.919Z,12.40
2018-03-08T00:06:12.607Z,12.67
2018-03-08T00:08:41.273Z,12.44
2018-03-08T00:11:10.265Z,12.92
2018-03-08T00:13:38.907Z,12.91
2018-03-08T00:16:08.220Z,12.15
2018-03-08T00:18:37.263Z,12.31
2018-03-08T00:21:05.950Z,12.64
2018-03-08T00:23:34.637Z,12.62
2018-03-08T00:26:03.325Z,12.88
2018-03-08T00:28:32.008Z,12.39
2018-03-08T00:31:00.633Z,13.15
2018-03-08T00:33:30.296Z,12.15
2018-03-08T00:35:58.986Z,13.61
2018-03-08T00:38:27.612Z,12.29
2018-03-08T00:40:58.254Z,13.10
2018-03-08T00:43:26.847Z,12.67
2018-03-08T00:45:55.573Z,13.58
2018-03-08T00:48:24.308Z,12.96
2018-03-08T00:50:53.766Z,13.27
2018-03-08T00:53:22.452Z,13.25
2018-03-08T00:55:51.189Z,13.53
2018-03-08T00:58:20.636Z,13.38
2018-03-08T01:00:49.224Z,12.86
2018-03-08T01:03:18.316Z,13.08
2018-03-08T01:05:46.959Z,12.49
2018-03-08T01:08:15.687Z,11.05
2018-03-08T01:10:44.420Z,11.39
2018-03-08T01:13:13.837Z,10.93
2018-03-08T01:15:42.569Z,11.13
2018-03-08T01:18:11.297Z,11.42
2018-03-08T01:20:40.763Z,12.09
2018-03-08T01:23:09.312Z,11.93
2018-03-08T01:25:38.025Z,12.64
2018-03-08T01:28:06.667Z,12.29
2018-03-08T01:30:35.361Z,12.17
2018-03-08T01:33:04.081Z,13.03
2018-03-08T01:35:32.722Z,13.34
2018-03-08T01:38:01.355Z,12.93
2018-03-08T01:40:30.138Z,12.90
2018-03-08T01:42:58.728Z,12.80
2018-03-08T01:45:27.418Z,12.67
2018-03-08T01:47:56.097Z,12.23
2018-03-08T01:50:24.785Z,13.42
2018-03-08T01:52:53.471Z,13.88
2018-03-08T01:55:22.439Z,14.04
2018-03-08T01:57:51.150Z,13.69
2018-03-08T02:00:19.775Z,13.82
2018-03-08T02:02:49.442Z,14.21
2018-03-08T02:05:18.085Z,13.99
2018-03-08T02:07:46.716Z,14.08
2018-03-08T02:10:15.400Z,14.41
2018-03-08T02:12:44.086Z,14.62
2018-03-08T02:15:12.664Z,14.30
2018-03-08T02:17:41.348Z,13.73
2018-03-08T02:20:09.996Z,13.76
2018-03-08T02:22:38.719Z,13.71
2018-03-08T02:25:07.706Z,13.51
2018-03-08T02:27:36.399Z,13.89
2018-03-08T02:30:05.197Z,13.56
2018-03-08T02:32:34.168Z,13.87
2018-03-08T02:35:02.874Z,14.30
2018-03-08T02:37:31.449Z,14.59
2018-03-08T02:40:00.135Z,14.90
2018-03-08T02:42:28.822Z,14.57
2018-03-08T02:44:57.476Z,14.47
2018-03-08T02:47:26.806Z,14.56
2018-03-08T02:49:55.463Z,14.89
2018-03-08T02:52:24.186Z,14.81
2018-03-08T02:54:53.282Z,15.01
2018-03-08T02:57:21.857Z,14.67
2018-03-08T02:59:50.544Z,14.61
2018-03-08T03:02:19.727Z,14.83
2018-03-08T03:04:48.432Z,15.12
2018-03-08T03:07:17.018Z,15.47
2018-03-08T03:09:45.817Z,15.20
2018-03-08T03:12:15.970Z,14.64
2018-03-08T03:14:45.631Z,14.96
2018-03-08T03:17:14.417Z,14.67
2018-03-08T03:19:43.048Z,14.71
2018-03-08T03:22:12.566Z,14.94
2018-03-08T03:24:41.298Z,15.03
2018-03-08T03:27:09.987Z,15.10
2018-03-08T03:29:38.769Z,15.39
2018-03-08T03:32:07.453Z,15.36
2018-03-08T03:34:36.106Z,15.69
2018-03-08T03:37:04.919Z,15.72
2018-03-08T03:39:33.615Z,15.37
2018-03-08T03:42:02.257Z,15.51
2018-03-08T03:44:31.952Z,15.20
2018-03-08T03:47:01.413Z,15.34
2018-03-08T03:49:30.099Z,15.21
2018-03-08T03:51:58.892Z,15.33
2018-03-08T03:54:27.579Z,14.79
2018-03-08T03:56:57.186Z,14.69
2018-03-08T03:59:26.761Z,14.78
2018-03-08T04:01:55.399Z,15.06
2018-03-08T04:04:24.850Z,14.82
2018-03-08T04:06:53.889Z,14.94
2018-03-08T04:09:23.349Z,15.25
2018-03-08T04:11:52.034Z,15.31
2018-03-08T04:14:20.917Z,15.61
2018-03-08T04:16:49.561Z,15.38
2018-03-08T04:19:18.290Z,15.53
2018-03-08T04:21:47.246Z,15.46
2018-03-08T04:24:15.968Z,15.30
2018-03-08T04:26:44.517Z,15.21
2018-03-08T04:29:13.549Z,15.29
2018-03-08T04:31:42.193Z,15.55
2018-03-08T04:34:10.921Z,15.51
2018-03-08T04:36:39.655Z,15.60
2018-03-08T04:39:09.113Z,15.74
2018-03-08T04:41:37.736Z,15.80
2018-03-08T04:44:07.259Z,15.84
2018-03-08T04:46:35.984Z,15.53
2018-03-08T04:49:04.570Z,16.06
2018-03-08T04:51:33.512Z,16.17
2018-03-08T04:54:02.864Z,15.80
2018-03-08T04:56:31.498Z,15.88
2018-03-08T04:59:01.049Z,15.89
2018-03-08T05:01:29.744Z,15.38
2018-03-08T05:03:58.325Z,15.63
2018-03-08T05:06:27.115Z,14.58
2018-03-08T05:08:55.693Z,15.41
2018-03-08T05:11:24.379Z,16.00
2018-03-08T05:13:53.173Z,15.15
2018-03-08T05:16:21.813Z,15.00
2018-03-08T05:18:50.546Z,15.15
2018-03-08T05:21:19.148Z,15.43
2018-03-08T05:23:47.930Z,15.11
2018-03-08T05:26:17.416Z,14.63
2018-03-08T05:28:46.101Z,14.65
2018-03-08T05:31:14.787Z,14.78
2018-03-08T05:33:43.471Z,15.38
2018-03-08T05:36:12.256Z,16.05
2018-03-08T05:38:40.953Z,15.63
2018-03-08T05:41:09.639Z,14.57
2018-03-08T05:43:38.424Z,14.85
2018-03-08T05:46:07.110Z,16.10
2018-03-08T05:48:35.700Z,15.44
2018-03-08T05:51:04.373Z,15.65
2018-03-08T05:53:33.070Z,16.56
2018-03-08T05:56:01.854Z,16.56
2018-03-08T05:58:30.541Z,16.01
2018-03-08T06:00:59.189Z,16.05
2018-03-08T06:03:27.914Z,15.28
2018-03-08T06:05:56.904Z,14.78
2018-03-08T06:08:25.544Z,15.56
2018-03-08T06:10:54.276Z,16.06
2018-03-08T06:13:23.270Z,17.07
2018-03-08T06:15:51.956Z,16.43
2018-03-08T06:18:20.642Z,16.84
2018-03-08T06:20:49.325Z,16.61
2018-03-08T06:23:17.913Z,16.79
2018-03-08T06:25:46.599Z,17.52
2018-03-08T06:28:15.385Z,17.09
2018-03-08T06:30:44.133Z,17.16
2018-03-08T06:33:12.823Z,16.41
2018-03-08T06:35:41.816Z,17.08
2018-03-08T06:38:10.533Z,16.77
2018-03-08T06:40:39.219Z,16.96
2018-03-08T06:43:08.014Z,16.92
2018-03-08T06:45:36.700Z,17.43
2018-03-08T06:48:05.377Z,17.81
2018-03-08T06:50:34.224Z,18.02
2018-03-08T06:53:02.761Z,17.59
2018-03-08T06:55:31.332Z,17.70
2018-03-08T06:58:00.032Z,17.19
2018-03-08T07:00:28.706Z,17.33
2018-03-08T07:02:58.588Z,17.53
2018-03-08T07:05:27.174Z,17.58
2018-03-08T07:07:55.821Z,17.84
2018-03-08T07:10:24.593Z,18.34
2018-03-08T07:12:54.045Z,18.21
2018-03-08T07:15:22.679Z,18.25
2018-03-08T07:17:52.545Z,18.00
2018-03-08T07:20:21.132Z,18.17
2018-03-08T07:22:49.818Z,18.05
2018-03-08T07:25:18.702Z,18.43
2018-03-08T07:27:47.388Z,18.32
2018-03-08T07:30:16.037Z,19.04
2018-03-08T07:32:44.904Z,17.15
2018-03-08T07:35:14.369Z,18.28
2018-03-08T07:37:43.053Z,17.97
2018-03-08T07:40:12.009Z,19.32
2018-03-08T07:42:40.732Z,16.95
2018-03-08T07:45:09.418Z,17.12
2018-03-08T07:47:38.412Z,18.44
2018-03-08T07:50:07.096Z,18.15
2018-03-08T07:52:35.749Z,17.18
2018-03-08T07:55:04.513Z,18.38
2018-03-08T07:57:33.978Z,16.99
2018-03-08T08:00:02.681Z,18.04
2018-03-08T08:02:31.396Z,18.18
2018-03-08T08:05:18.712Z,19.85
2018-03-08T08:08:06.051Z,19.85
2018-03-08T08:10:35.500Z,19.41
2018-03-08T08:13:04.081Z,18.73
2018-03-08T08:15:33.177Z,18.46
2018-03-08T08:18:01.997Z,18.73
2018-03-08T08:20:30.649Z,19.36
2018-03-08T08:22:59.587Z,19.19
2018-03-08T08:25:29.052Z,18.96
2018-03-08T08:27:57.617Z,18.49
2018-03-08T08:30:26.412Z,18.54
2018-03-08T08:32:55.208Z,18.92
2018-03-08T08:35:23.895Z,19.33
2018-03-08T08:37:52.679Z,19.59
2018-03-08T08:40:21.364Z,19.68
2018-03-08T08:42:50.051Z,19.49
2018-03-08T08:45:18.846Z,19.71
2018-03-08T08:47:47.531Z,19.40
2018-03-08T08:50:16.217Z,19.08
2018-03-08T08:52:44.903Z,18.28
2018-03-08T08:55:13.588Z,18.36
2018-03-08T08:57:42.374Z,18.68
2018-03-08T09:00:11.517Z,18.68
2018-03-08T09:02:40.924Z,18.73
2018-03-08T09:05:10.373Z,18.66
2018-03-08T09:07:39.431Z,18.63
2018-03-08T09:10:08.099Z,18.58
2018-03-08T09:12:37.561Z,18.51
2018-03-08T09:15:06.653Z,18.14
2018-03-08T09:17:35.201Z,19.18
2018-03-08T09:20:03.875Z,19.30
2018-03-08T09:22:33.364Z,18.89
2018-03-08T09:25:02.834Z,18.59
2018-03-08T09:27:31.519Z,18.75
2018-03-08T09:30:00.610Z,18.68
2018-03-08T09:32:29.297Z,19.41
2018-03-08T09:34:57.960Z,19.33
2018-03-08T09:37:26.721Z,20.29
2018-03-08T09:39:56.177Z,20.50
2018-03-08T09:42:24.863Z,21.14
2018-03-08T09:44:53.805Z,20.73
2018-03-08T09:47:23.254Z,21.25
2018-03-08T09:49:51.890Z,22.16
2018-03-08T09:52:21.755Z,21.97
2018-03-08T09:54:50.442Z,22.35
2018-03-08T09:57:19.021Z,22.26
2018-03-08T09:59:47.912Z,22.03
2018-03-08T10:02:16.598Z,22.45
2018-03-08T10:04:45.190Z,21.90
2018-03-08T10:07:13.870Z,22.42
2018-03-08T10:09:42.558Z,23.06
2018-03-08T10:12:11.138Z,21.68
2018-03-08T10:14:39.929Z,22.06
2018-03-08T10:17:08.615Z,22.94
2018-03-08T10:19:37.257Z,21.67
2018-03-08T10:22:06.250Z,21.80
2018-03-08T10:24:34.980Z,21.19
2018-03-08T10:27:03.669Z,22.16
2018-03-08T10:29:32.679Z,22.33
2018-03-08T10:32:01.344Z,22.73
2018-03-08T10:34:30.043Z,22.68
2018-03-08T10:36:58.814Z,23.14
2018-03-08T10:41:56.701Z,23.01
2018-03-08T10:44:25.792Z,22.05
2018-03-08T10:46:55.269Z,22.56
2018-03-08T10:49:23.923Z,22.49
2018-03-08T10:51:52.915Z,22.59
2018-03-08T10:54:21.635Z,22.36
2018-03-08T10:56:50.221Z,21.32
2018-03-08T10:59:18.920Z,22.19
2018-03-08T11:02:04.385Z,22.37
2018-03-08T11:04:37.070Z,21.15
2018-03-08T11:07:05.759Z,21.99
2018-03-08T11:09:34.338Z,22.60
2018-03-08T11:12:03.064Z,22.15
2018-03-08T11:14:32.527Z,22.03
2018-03-08T11:17:01.216Z,21.60
2018-03-08T11:19:30.304Z,21.73
2018-03-08T11:21:58.957Z,22.48
2018-03-08T11:24:27.676Z,22.93
2018-03-08T11:26:56.361Z,22.83
2018-03-08T11:29:25.048Z,23.80
2018-03-08T11:31:53.733Z,22.67
2018-03-08T11:34:22.727Z,22.48
2018-03-08T11:36:51.412Z,22.83
2018-03-08T11:39:19.968Z,22.86
2018-03-08T11:41:48.951Z,22.86
2018-03-08T11:44:17.679Z,21.62
2018-03-08T11:46:46.364Z,22.73
2018-03-08T11:49:15.149Z,22.11
2018-03-08T11:51:43.834Z,21.67
2018-03-08T11:54:12.467Z,22.80
2018-03-08T11:56:41.985Z,22.55
2018-03-08T11:59:10.715Z,21.78
2018-03-08T12:01:39.608Z,22.56
2018-03-08T12:04:08.339Z,22.57
2018-03-08T12:06:38.204Z,22.39
2018-03-08T12:09:06.895Z,23.55
2018-03-08T12:11:35.681Z,23.31
2018-03-08T12:14:04.366Z,23.32
2018-03-08T12:16:32.947Z,23.23
2018-03-08T12:19:01.629Z,22.49
2018-03-08T12:21:30.324Z,23.10
2018-03-08T12:23:59.009Z,21.90
2018-03-08T12:26:27.852Z,21.70
2018-03-08T12:28:56.579Z,22.22
2018-03-08T12:31:25.213Z,22.58
2018-03-08T12:33:54.681Z,21.89
2018-03-08T12:36:23.228Z,21.78
2018-03-08T12:38:51.937Z,22.27
2018-03-08T12:41:21.852Z,22.77
2018-03-08T12:43:50.442Z,22.55
2018-03-08T12:46:19.119Z,22.93
2018-03-08T12:48:47.926Z,21.97
2018-03-08T12:51:17.358Z,22.33
2018-03-08T12:53:46.817Z,22.88
2018-03-08T12:56:15.668Z,22.72
2018-03-08T12:58:44.398Z,22.21
2018-03-08T13:01:13.083Z,21.26
2018-03-08T13:03:42.817Z,21.32
2018-03-08T13:06:11.584Z,20.97
2018-03-08T13:08:40.308Z,22.00
2018-03-08T13:11:09.970Z,21.86
2018-03-08T13:13:38.662Z,21.06
2018-03-08T13:16:08.134Z,21.41
2018-03-08T13:18:36.864Z,21.67
2018-03-08T13:21:05.549Z,21.43
2018-03-08T13:23:34.191Z,21.61
2018-03-08T13:26:02.985Z,21.88
2018-03-08T13:28:31.606Z,21.26
2018-03-08T13:31:00.194Z,21.24
2018-03-08T13:33:29.078Z,21.28
2018-03-08T13:35:57.732Z,22.35
2018-03-08T13:38:26.449Z,21.75
2018-03-08T13:40:55.651Z,21.57
2018-03-08T13:43:24.337Z,21.43
2018-03-08T13:45:53.078Z,21.52
2018-03-08T13:48:21.717Z,21.21
2018-03-08T13:50:50.439Z,21.11
2018-03-08T13:53:19.902Z,20.75
2018-03-08T13:55:48.876Z,20.95
2018-03-08T13:58:17.430Z,20.56
2018-03-08T14:00:45.980Z,20.60
2018-03-08T14:03:14.592Z,20.94
2018-03-08T14:05:43.183Z,20.62
2018-03-08T14:08:11.746Z,20.54
2018-03-08T14:10:41.109Z,20.11
2018-03-08T14:13:09.662Z,19.99
2018-03-08T14:15:38.233Z,19.83
2018-03-08T14:18:07.266Z,19.63
2018-03-08T14:20:36.582Z,19.35
2018-03-08T14:23:05.156Z,19.33
2018-03-08T14:25:33.937Z,19.23
2018-03-08T14:28:02.493Z,19.10
2018-03-08T14:30:31.105Z,18.75
2018-03-08T14:33:00.209Z,18.75
2018-03-08T14:35:28.890Z,18.80
2018-03-08T14:37:57.576Z,18.37
2018-03-08T14:40:26.261Z,18.74
2018-03-08T14:42:54.946Z,18.29
2018-03-08T14:45:23.634Z,18.84
2018-03-08T14:47:52.327Z,18.91
2018-03-08T14:50:21.104Z,18.82
2018-03-08T14:52:49.653Z,19.06
2018-03-08T14:55:18.564Z,18.95
2018-03-08T14:57:47.112Z,19.00
2018-03-08T15:00:15.666Z,19.51
2018-03-08T15:02:44.364Z,18.87
2018-03-08T15:05:13.685Z,18.89
2018-03-08T15:07:42.248Z,18.88
2018-03-08T15:10:10.954Z,18.89
2018-03-08T15:12:40.393Z,18.94
2018-03-08T15:15:09.091Z,18.79
2018-03-08T15:17:37.788Z,18.98
2018-03-08T15:20:06.561Z,18.89
2018-03-08T15:22:35.248Z,18.57
2018-03-08T15:25:03.940Z,18.45
2018-03-08T15:27:32.521Z,18.36
2018-03-08T15:30:01.207Z,18.11
2018-03-08T15:32:29.991Z,18.33
2018-03-08T15:34:58.680Z,18.44
2018-03-08T15:37:27.361Z,18.39
2018-03-08T15:39:56.098Z,18.23
2018-03-08T15:42:25.558Z,17.83
2018-03-08T15:44:54.243Z,18.80
2018-03-08T15:47:23.244Z,18.07
2018-03-08T15:49:51.898Z,17.90
2018-03-08T15:52:20.597Z,18.71
2018-03-08T15:54:49.393Z,17.82
2018-03-08T15:57:17.969Z,17.76
2018-03-08T15:59:46.655Z,18.02
2018-03-08T16:02:15.757Z,17.96
2018-03-08T16:04:44.308Z,17.38
2018-03-08T16:10:37.002Z,17.70
2018-03-08T16:13:05.897Z,17.72
2018-03-08T16:15:34.582Z,17.63
2018-03-08T16:18:03.136Z,17.33
2018-03-08T16:20:31.959Z,17.44
2018-03-08T16:23:00.640Z,17.32
2018-03-08T16:25:29.325Z,17.70
2018-03-08T16:27:58.108Z,17.81
2018-03-08T16:30:26.652Z,17.49
2018-03-08T16:32:55.201Z,17.39
2018-03-08T16:35:23.938Z,17.50
2018-03-08T16:37:52.545Z,17.62
2018-03-08T16:40:21.089Z,17.71
2018-03-08T16:42:50.076Z,17.95
2018-03-08T16:45:19.525Z,17.49
2018-03-08T16:47:48.210Z,17.34
2018-03-08T16:50:16.997Z,17.43
2018-03-08T16:52:45.544Z,16.95
2018-03-08T16:55:14.093Z,17.23
2018-03-08T16:57:43.482Z,17.13
2018-03-08T17:00:12.200Z,16.98
2018-03-08T17:02:41.513Z,17.16
2018-03-08T17:05:10.226Z,17.29
2018-03-08T17:07:38.796Z,17.51
2018-03-08T17:10:07.427Z,17.41
2018-03-08T17:12:36.540Z,17.37
2018-03-08T17:15:05.212Z,17.31
2018-03-08T17:17:33.942Z,16.92
2018-03-08T17:20:02.837Z,17.03
2018-03-08T17:22:31.524Z,17.12
2018-03-08T17:25:00.222Z,17.08
2018-03-08T17:27:28.997Z,17.34
2018-03-08T17:29:57.679Z,17.15
2018-03-08T17:32:26.331Z,17.61
2018-03-08T17:34:55.200Z,17.49
2018-03-08T17:37:24.663Z,17.03
2018-03-08T17:39:53.344Z,17.65
2018-03-08T17:42:22.208Z,17.31
2018-03-08T17:44:50.872Z,17.53
2018-03-08T17:47:20.326Z,18.10
2018-03-08T17:49:49.309Z,18.20
2018-03-08T17:52:18.000Z,18.47
2018-03-08T17:54:46.687Z,18.59
2018-03-08T17:57:15.636Z,18.52
2018-03-08T17:59:44.366Z,18.34
2018-03-08T18:02:13.765Z,18.74
2018-03-08T18:04:42.518Z,19.10
2018-03-08T18:07:11.247Z,19.20
2018-03-08T18:09:39.934Z,19.16
2018-03-08T18:12:08.926Z,19.36
2018-03-08T18:14:37.611Z,19.26
2018-03-08T18:17:06.297Z,18.84
2018-03-08T18:19:35.081Z,19.04
2018-03-08T18:22:03.768Z,18.83
2018-03-08T18:24:32.409Z,18.86
2018-03-08T18:27:01.348Z,18.70
2018-03-08T18:29:30.131Z,18.43
2018-03-08T18:31:58.716Z,18.13
2018-03-08T18:34:27.781Z,18.10
2018-03-08T18:36:56.497Z,17.81
2018-03-08T18:39:25.182Z,17.76
2018-03-08T18:41:53.977Z,17.49
2018-03-08T18:44:22.550Z,17.34
2018-03-08T18:46:51.097Z,17.28
2018-03-08T18:49:19.693Z,17.74
2018-03-08T18:51:48.244Z,17.46
2018-03-08T18:54:16.792Z,17.75
2018-03-08T18:56:46.159Z,17.85
2018-03-08T18:59:14.749Z,17.62
2018-03-08T19:01:43.340Z,17.37
2018-03-08T19:04:12.729Z,17.49
2018-03-08T19:06:41.282Z,17.38
2018-03-08T19:09:09.833Z,17.06
2018-03-08T19:11:39.348Z,17.08
2018-03-08T19:14:07.897Z,17.32
2018-03-08T19:16:36.464Z,17.32
2018-03-08T19:19:05.349Z,17.13
2018-03-08T19:21:33.909Z,17.34
2018-03-08T19:24:02.461Z,17.04
2018-03-08T19:26:31.824Z,17.03
2018-03-08T19:29:00.394Z,17.19
2018-03-08T19:31:28.942Z,16.67
2018-03-08T19:33:57.870Z,16.76
2018-03-08T19:36:26.417Z,16.73
2018-03-08T19:38:54.986Z,16.70
2018-03-08T19:41:24.498Z,16.65
2018-03-08T19:43:53.048Z,16.82
2018-03-08T19:46:21.597Z,16.97
2018-03-08T19:48:50.195Z,17.07
2018-03-08T19:51:18.744Z,17.31
2018-03-08T19:53:47.289Z,17.11
2018-03-08T19:56:16.657Z,17.15
2018-03-08T19:58:45.210Z,17.14
2018-03-08T20:01:13.761Z,17.02
2018-03-08T20:03:43.322Z,17.01
2018-03-08T20:06:11.873Z,17.46
2018-03-08T20:08:40.444Z,18.17
2018-03-08T20:11:09.818Z,17.88
2018-03-08T20:13:38.369Z,17.50
2018-03-08T20:16:06.955Z,17.77
2018-03-08T20:18:35.712Z,17.82
2018-03-08T20:21:04.272Z,18.14
2018-03-08T20:23:32.832Z,18.61
2018-03-08T20:26:02.293Z,18.40
2018-03-08T20:28:30.840Z,18.37
2018-03-08T20:30:59.392Z,18.25
2018-03-08T20:33:27.985Z,18.44
2018-03-08T20:35:57.298Z,18.16
2018-03-08T20:38:25.849Z,18.41
2018-03-08T20:40:54.611Z,18.74
2018-03-08T20:43:23.170Z,18.06
2018-03-08T20:45:51.778Z,17.78
2018-03-08T20:48:20.368Z,17.28
2018-03-08T20:50:48.912Z,17.64
2018-03-08T20:53:17.458Z,18.06
2018-03-08T20:55:47.044Z,17.99
2018-03-08T20:58:15.615Z,17.71
2018-03-08T21:00:44.189Z,17.50
2018-03-08T21:03:12.925Z,17.55
2018-03-08T21:05:41.474Z,17.74
2018-03-08T21:08:10.016Z,17.17
2018-03-08T21:10:38.612Z,17.41
2018-03-08T21:13:07.171Z,17.17
2018-03-08T21:15:35.729Z,17.40
2018-03-08T21:18:04.365Z,17.23
2018-03-08T21:20:32.913Z,16.91
2018-03-08T21:23:02.224Z,16.99
2018-03-08T21:25:31.688Z,16.85
2018-03-08T21:28:01.004Z,16.68
2018-03-08T21:30:29.561Z,16.52
2018-03-08T21:32:58.347Z,16.61
2018-03-08T21:35:26.893Z,16.41
2018-03-08T21:37:55.440Z,16.33
2018-03-08T21:40:24.043Z,16.51
2018-03-08T21:42:53.353Z,16.76
2018-03-08T21:45:21.906Z,16.73
2018-03-08T21:47:50.771Z,16.63
2018-03-08T21:50:20.086Z,16.67
2018-03-08T21:52:48.637Z,17.28
2018-03-08T21:55:17.232Z,17.38
2018-03-08T21:57:45.776Z,17.28
2018-03-08T22:00:14.325Z,16.30
2018-03-08T22:02:42.924Z,16.92
2018-03-08T22:05:12.240Z,17.30
2018-03-08T22:07:41.552Z,17.53
2018-03-08T22:10:10.248Z,17.93
2018-03-08T22:12:38.801Z,17.52
2018-03-08T22:15:08.111Z,17.48
2018-03-08T22:17:36.737Z,17.49
2018-03-08T22:20:05.325Z,17.66
2018-03-08T22:22:33.873Z,17.74
2018-03-08T22:25:02.472Z,17.74
2018-03-08T22:27:31.031Z,17.41
2018-03-08T22:29:59.620Z,16.97
2018-03-08T22:32:28.224Z,17.54
2018-03-08T22:34:56.776Z,17.22
2018-03-08T22:37:26.093Z,16.92
2018-03-08T22:39:54.702Z,17.23
2018-03-08T22:42:23.245Z,17.38
2018-03-08T22:44:51.793Z,17.10
2018-03-08T22:47:20.389Z,17.04
2018-03-08T22:49:49.708Z,16.96
2018-03-08T22:52:19.021Z,16.82
2018-03-08T22:54:47.889Z,16.28
2018-03-08T22:57:17.200Z,16.69
2018-03-08T22:59:46.513Z,16.87
2018-03-08T23:02:16.036Z,16.75
2018-03-08T23:04:44.593Z,16.54
2018-03-08T23:07:13.144Z,16.57
2018-03-08T23:09:41.833Z,16.13
2018-03-08T23:12:10.382Z,16.21
2018-03-08T23:14:38.924Z,15.72
2018-03-08T23:17:08.464Z,15.55
2018-03-08T23:19:37.010Z,15.69
2018-03-08T23:22:05.646Z,15.59
2018-03-08T23:24:34.620Z,15.23
2018-03-08T23:27:03.192Z,15.22
2018-03-08T23:29:31.736Z,15.37
2018-03-08T23:32:01.410Z,15.44
2018-03-08T23:34:29.957Z,14.46
2018-03-08T23:36:58.508Z,14.54
2018-03-08T23:39:27.104Z,14.50
2018-03-08T23:41:55.847Z,14.59
2018-03-08T23:44:24.400Z,14.46
2018-03-08T23:46:53.001Z,14.92
2018-03-08T23:49:21.548Z,14.31
2018-03-08T23:51:50.859Z,14.38
2018-03-08T23:54:19.445Z,14.72
2018-03-08T23:56:47.984Z,14.91
2018-03-08T23:59:16.537Z,14.91
